createdAt,value
2023-01-13T00:01:14.211Z,0.10
2023-01-13T00:03:41.192Z,0.10
2023-01-13T00:06:08.431Z,0.10
2023-01-13T00:08:35.874Z,0.17
2023-01-13T00:11:02.791Z,0.30
2023-01-13T00:13:29.577Z,0.17
2023-01-13T00:16:04.418Z,0.10
2023-01-13T00:18:31.200Z,0.10
2023-01-13T00:21:01.668Z,0.10
2023-01-13T00:23:29.271Z,0.20
2023-01-13T00:25:59.864Z,0.20
2023-01-13T00:28:26.618Z,0.10
2023-01-13T00:30:53.543Z,0.10
2023-01-13T00:33:20.481Z,0.10
2023-01-13T00:35:58.356Z,0.70
2023-01-13T00:38:25.123Z,0.10
2023-01-13T00:41:03.395Z,0.87
2023-01-13T00:43:30.975Z,0.90
2023-01-13T00:45:57.746Z,1.00
2023-01-13T00:48:24.703Z,0.73
2023-01-13T00:50:58.694Z,0.50
2023-01-13T00:53:25.864Z,0.30
2023-01-13T00:56:00.397Z,0.83
2023-01-13T00:58:27.215Z,0.53
2023-01-13T01:00:54.064Z,0.30
2023-01-13T01:03:20.857Z,0.87
2023-01-13T01:05:47.618Z,0.50
2023-01-13T01:08:14.369Z,0.50
2023-01-13T01:10:41.119Z,0.80
2023-01-13T01:13:07.865Z,1.03
2023-01-13T01:15:34.613Z,0.80
2023-01-13T01:18:01.375Z,0.40
2023-01-13T01:20:28.137Z,0.63
2023-01-13T01:22:54.882Z,0.30
2023-01-13T01:25:21.642Z,0.40
2023-01-13T01:27:48.475Z,0.63
2023-01-13T01:30:15.432Z,1.10
2023-01-13T01:32:42.182Z,0.40
2023-01-13T01:35:09.087Z,0.30
2023-01-13T01:37:35.845Z,0.40
2023-01-13T01:40:02.579Z,0.60
2023-01-13T01:42:47.768Z,0.23
2023-01-13T01:45:19.710Z,0.40
2023-01-13T01:47:48.360Z,0.93
2023-01-13T01:50:15.408Z,0.43
2023-01-13T01:52:43.841Z,0.33
2023-01-13T01:55:15.781Z,0.77
2023-01-13T01:58:02.385Z,0.83
2023-01-13T02:00:29.185Z,1.23
2023-01-13T02:02:55.954Z,0.50
2023-01-13T02:05:22.708Z,1.07
2023-01-13T02:07:52.181Z,0.20
2023-01-13T02:10:24.067Z,0.63
2023-01-13T02:12:50.851Z,1.23
2023-01-13T02:15:19.415Z,0.50
2023-01-13T02:18:02.629Z,0.53
2023-01-13T02:20:36.058Z,0.30
2023-01-13T02:23:36.933Z,0.50
2023-01-13T02:26:22.493Z,1.50
2023-01-13T02:29:20.515Z,0.93
2023-01-13T02:31:47.701Z,0.57
2023-01-13T02:34:21.382Z,0.40
2023-01-13T02:37:00.133Z,0.40
2023-01-13T02:39:29.634Z,0.80
2023-01-13T02:42:34.526Z,0.70
2023-01-13T02:45:10.668Z,0.97
2023-01-13T02:47:38.391Z,1.40
2023-01-13T02:50:17.589Z,1.10
2023-01-13T02:52:51.811Z,2.17
2023-01-13T02:55:22.029Z,2.73
2023-01-13T02:57:49.881Z,2.60
2023-01-13T03:00:17.688Z,2.23
2023-01-13T03:02:45.115Z,0.90
2023-01-13T03:05:16.021Z,1.97
2023-01-13T03:07:46.422Z,1.50
2023-01-13T03:10:58.089Z,2.07
2023-01-13T03:13:39.064Z,1.03
2023-01-13T03:16:09.807Z,0.67
2023-01-13T03:18:54.252Z,2.57
2023-01-13T03:21:31.127Z,1.07
2023-01-13T03:24:00.888Z,2.20
2023-01-13T03:26:38.773Z,3.60
2023-01-13T03:29:23.323Z,4.67
2023-01-13T03:32:25.962Z,2.57
2023-01-13T03:35:00.578Z,1.20
2023-01-13T03:37:32.159Z,3.17
2023-01-13T03:40:12.404Z,2.07
2023-01-13T03:42:41.246Z,2.30
2023-01-13T03:45:12.348Z,1.93
2023-01-13T03:47:58.696Z,1.67
2023-01-13T03:50:29.093Z,1.90
2023-01-13T03:53:05.303Z,1.80
2023-01-13T03:55:37.099Z,3.67
2023-01-13T03:58:24.076Z,1.40
2023-01-13T04:00:55.882Z,3.10
2023-01-13T04:03:48.058Z,3.17
2023-01-13T04:06:31.938Z,3.50
2023-01-13T04:09:23.217Z,2.73
2023-01-13T04:11:54.450Z,2.07
2023-01-13T04:14:21.804Z,2.10
2023-01-13T04:16:49.503Z,2.37
2023-01-13T04:19:16.784Z,2.90
2023-01-13T04:21:44.352Z,2.83
2023-01-13T04:24:11.586Z,2.53
2023-01-13T04:26:38.941Z,1.83
2023-01-13T04:29:06.577Z,1.03
2023-01-13T04:31:34.674Z,1.90
2023-01-13T04:34:02.181Z,2.93
2023-01-13T04:36:29.440Z,2.17
2023-01-13T04:38:57.474Z,3.30
2023-01-13T04:41:24.958Z,3.27
2023-01-13T04:43:52.300Z,1.23
2023-01-13T04:46:19.493Z,3.20
2023-01-13T04:48:47.011Z,0.90
2023-01-13T04:51:14.359Z,2.63
2023-01-13T04:53:41.500Z,3.43
2023-01-13T04:56:08.697Z,4.67
2023-01-13T04:58:35.843Z,2.47
2023-01-13T05:01:03.339Z,2.17
2023-01-13T05:03:30.542Z,3.07
2023-01-13T05:05:57.455Z,4.07
2023-01-13T05:08:24.743Z,4.20
2023-01-13T05:10:56.563Z,1.93
2023-01-13T05:13:42.379Z,1.27
2023-01-13T05:16:28.647Z,2.83
2023-01-13T05:18:56.004Z,3.33
2023-01-13T05:21:41.663Z,2.63
2023-01-13T05:24:29.406Z,1.47
2023-01-13T05:26:57.421Z,1.90
2023-01-13T05:29:24.958Z,4.27
2023-01-13T05:31:52.102Z,1.60
2023-01-13T05:34:20.131Z,2.53
2023-01-13T05:36:47.630Z,3.40
2023-01-13T05:39:14.948Z,2.33
2023-01-13T05:42:01.476Z,1.90
2023-01-13T05:44:29.669Z,1.77
2023-01-13T05:46:57.414Z,2.90
2023-01-13T05:49:24.754Z,2.73
2023-01-13T05:51:51.940Z,3.10
2023-01-13T05:54:19.030Z,4.80
2023-01-13T05:56:46.360Z,1.80
2023-01-13T05:59:13.486Z,1.73
2023-01-13T06:01:41.368Z,3.33
2023-01-13T06:04:08.978Z,0.77
2023-01-13T06:06:36.946Z,3.47
2023-01-13T06:09:04.104Z,2.20
2023-01-13T06:11:33.627Z,3.47
2023-01-13T06:14:00.901Z,1.47
2023-01-13T06:16:28.438Z,3.47
2023-01-13T06:18:56.474Z,1.53
2023-01-13T06:21:24.293Z,3.30
2023-01-13T06:23:51.526Z,4.37
2023-01-13T06:26:31.092Z,2.77
2023-01-13T06:28:58.466Z,4.13
2023-01-13T06:31:28.781Z,3.30
2023-01-13T06:34:00.093Z,3.07
2023-01-13T06:36:29.983Z,3.83
2023-01-13T06:38:58.717Z,2.60
2023-01-13T06:41:44.730Z,4.63
2023-01-13T06:44:11.923Z,4.17
2023-01-13T06:46:39.094Z,2.80
2023-01-13T06:49:07.504Z,3.20
2023-01-13T06:51:34.575Z,4.60
2023-01-13T06:54:01.874Z,3.57
2023-01-13T06:56:29.129Z,3.10
2023-01-13T06:58:56.309Z,2.67
2023-01-13T07:01:23.657Z,3.70
2023-01-13T07:03:51.315Z,2.67
2023-01-13T07:06:19.567Z,3.37
2023-01-13T07:08:46.726Z,2.93
2023-01-13T07:11:13.963Z,4.00
2023-01-13T07:16:52.930Z,4.03
2023-01-13T07:19:23.905Z,5.57
2023-01-13T07:21:52.234Z,5.03
2023-01-13T07:24:19.927Z,4.30
2023-01-13T07:26:47.098Z,2.30
2023-01-13T07:29:14.244Z,5.17
2023-01-13T07:31:41.394Z,4.03
2023-01-13T07:34:08.624Z,2.87
2023-01-13T07:36:35.749Z,4.33
2023-01-13T07:39:02.977Z,4.07
2023-01-13T07:41:48.514Z,6.93
2023-01-13T07:44:15.692Z,4.70
2023-01-13T07:46:42.862Z,4.20
2023-01-13T07:49:10.167Z,6.83
2023-01-13T07:51:38.104Z,3.97
2023-01-13T07:54:05.736Z,5.27
2023-01-13T07:56:32.890Z,7.07
2023-01-13T07:59:00.771Z,4.90
2023-01-13T08:01:28.147Z,5.87
2023-01-13T08:03:56.358Z,5.10
2023-01-13T08:06:23.462Z,6.17
2023-01-13T08:08:50.624Z,3.03
2023-01-13T08:11:17.689Z,5.47
2023-01-13T08:13:44.848Z,5.83
2023-01-13T08:16:13.514Z,6.13
2023-01-13T08:18:40.807Z,5.20
2023-01-13T08:21:12.991Z,6.27
2023-01-13T08:23:40.782Z,3.60
2023-01-13T08:26:15.229Z,5.50
2023-01-13T08:28:42.420Z,7.33
2023-01-13T08:31:12.002Z,6.60
2023-01-13T08:33:39.372Z,6.23
2023-01-13T08:36:07.789Z,3.10
2023-01-13T08:38:35.252Z,5.63
2023-01-13T08:41:02.652Z,6.10
2023-01-13T08:43:29.823Z,6.80
2023-01-13T08:46:01.079Z,7.03
2023-01-13T08:48:31.586Z,9.57
2023-01-13T08:51:07.633Z,9.63
2023-01-13T08:53:34.669Z,7.90
2023-01-13T08:56:11.846Z,8.47
2023-01-13T08:58:39.231Z,6.57
2023-01-13T09:01:07.153Z,6.87
2023-01-13T09:03:34.988Z,6.73
2023-01-13T09:06:02.391Z,4.33
2023-01-13T09:08:29.560Z,6.87
2023-01-13T09:10:57.190Z,6.97
2023-01-13T09:13:24.363Z,4.13
2023-01-13T09:15:52.571Z,5.00
2023-01-13T09:18:21.841Z,6.80
2023-01-13T09:20:49.053Z,3.83
2023-01-13T09:23:16.143Z,3.37
2023-01-13T09:25:44.481Z,3.83
2023-01-13T09:28:12.374Z,4.27
2023-01-13T09:30:40.076Z,6.30
2023-01-13T09:33:26.139Z,7.10
2023-01-13T09:35:53.909Z,4.07
2023-01-13T09:38:21.691Z,4.17
2023-01-13T09:40:49.849Z,5.83
2023-01-13T09:43:38.937Z,3.90
2023-01-13T09:46:31.332Z,5.37
2023-01-13T09:48:58.975Z,4.10
2023-01-13T09:51:32.697Z,3.63
2023-01-13T09:54:06.945Z,11.10
2023-01-13T09:56:35.562Z,4.33
2023-01-13T09:59:03.522Z,6.47
2023-01-13T10:01:36.124Z,3.37
2023-01-13T10:04:13.872Z,3.23
2023-01-13T10:06:43.102Z,5.90
2023-01-13T10:09:23.926Z,5.97
2023-01-13T10:12:08.943Z,4.40
2023-01-13T10:14:47.807Z,5.33
2023-01-13T10:17:29.422Z,4.37
2023-01-13T10:19:57.665Z,3.73
2023-01-13T10:22:30.958Z,5.43
2023-01-13T10:25:18.217Z,7.47
2023-01-13T10:27:49.107Z,4.77
2023-01-13T10:30:19.788Z,5.37
2023-01-13T10:32:55.242Z,5.43
2023-01-13T10:35:47.679Z,6.37
2023-01-13T10:38:19.499Z,4.50
2023-01-13T10:40:51.012Z,5.90
2023-01-13T10:43:17.697Z,4.90
2023-01-13T10:45:52.683Z,6.47
2023-01-13T10:48:19.295Z,6.23
2023-01-13T10:50:48.150Z,9.53
2023-01-13T10:53:20.146Z,5.87
2023-01-13T10:56:01.452Z,4.83
2023-01-13T10:58:28.501Z,6.57
2023-01-13T11:01:04.072Z,6.13
2023-01-13T11:03:42.974Z,5.43
2023-01-13T11:06:09.763Z,4.20
2023-01-13T11:08:45.081Z,4.00
2023-01-13T11:11:33.513Z,5.57
2023-01-13T11:14:20.462Z,4.70
2023-01-13T11:16:53.483Z,5.07
2023-01-13T11:19:21.144Z,4.77
2023-01-13T11:22:05.607Z,3.37
2023-01-13T11:24:51.306Z,4.57
2023-01-13T11:27:37.360Z,6.43
2023-01-13T11:30:34.392Z,5.50
2023-01-13T11:33:27.202Z,2.43
2023-01-13T11:36:05.807Z,3.40
2023-01-13T11:38:47.830Z,6.27
2023-01-13T11:41:35.373Z,2.30
2023-01-13T11:44:15.030Z,3.87
2023-01-13T11:46:41.746Z,3.97
2023-01-13T11:49:13.794Z,3.70
2023-01-13T11:51:53.011Z,4.30
2023-01-13T11:54:36.112Z,5.50
2023-01-13T11:57:21.230Z,2.77
2023-01-13T12:00:09.584Z,5.60
2023-01-13T12:02:51.382Z,5.30
2023-01-13T12:05:38.913Z,4.43
2023-01-13T12:08:14.450Z,5.77
2023-01-13T12:10:59.196Z,6.13
2023-01-13T12:14:02.731Z,5.23
2023-01-13T12:16:30.571Z,3.83
2023-01-13T12:19:32.254Z,4.60
2023-01-13T12:22:15.614Z,3.47
2023-01-13T12:25:00.833Z,5.17
2023-01-13T12:27:47.476Z,6.27
2023-01-13T12:30:26.462Z,6.90
2023-01-13T12:32:54.432Z,4.80
2023-01-13T12:35:39.963Z,5.40
2023-01-13T12:38:21.116Z,3.87
2023-01-13T12:41:05.737Z,4.17
2023-01-13T12:43:50.803Z,5.27
2023-01-13T12:46:23.309Z,4.43
2023-01-13T12:48:54.856Z,4.97
2023-01-13T12:51:35.799Z,4.23
2023-01-13T12:54:37.481Z,5.40
2023-01-13T12:57:25.039Z,4.90
2023-01-13T13:00:03.908Z,8.80
2023-01-13T13:02:38.079Z,3.63
2023-01-13T13:05:23.072Z,5.70
2023-01-13T13:08:14.536Z,4.37
2023-01-13T13:10:46.650Z,3.03
2023-01-13T13:13:39.534Z,3.90
2023-01-13T13:16:25.113Z,3.60
2023-01-13T13:18:52.551Z,4.13
2023-01-13T13:21:19.125Z,5.13
2023-01-13T13:24:01.152Z,6.23
2023-01-13T13:26:38.754Z,4.77
2023-01-13T13:29:26.575Z,4.27
2023-01-13T13:32:25.206Z,4.50
2023-01-13T13:35:09.704Z,4.70
2023-01-13T13:38:23.103Z,5.53
2023-01-13T13:41:08.595Z,5.73
2023-01-13T13:44:03.786Z,4.40
2023-01-13T13:46:47.345Z,3.83
2023-01-13T13:49:17.777Z,3.97
2023-01-13T13:51:51.690Z,2.90
2023-01-13T13:54:19.888Z,3.10
2023-01-13T13:56:46.875Z,3.70
2023-01-13T13:59:16.967Z,6.90
2023-01-13T14:01:45.224Z,3.17
2023-01-13T14:04:18.847Z,4.03
2023-01-13T14:06:58.881Z,3.00
2023-01-13T14:09:26.539Z,3.07
2023-01-13T14:11:58.954Z,6.00
2023-01-13T14:14:25.701Z,4.53
2023-01-13T14:16:52.453Z,2.77
2023-01-13T14:19:32.073Z,3.37
2023-01-13T14:22:03.502Z,4.47
2023-01-13T14:24:30.522Z,4.00
2023-01-13T14:27:16.807Z,3.47
2023-01-13T14:29:43.421Z,5.90
2023-01-13T14:32:12.865Z,6.17
2023-01-13T14:34:39.482Z,4.73
2023-01-13T14:37:23.157Z,7.23
2023-01-13T14:39:49.834Z,4.60
2023-01-13T14:42:16.789Z,6.60
2023-01-13T14:44:45.521Z,6.93
2023-01-13T14:47:33.610Z,7.07
2023-01-13T14:50:16.498Z,6.67
2023-01-13T14:52:50.872Z,5.13
2023-01-13T14:55:31.076Z,7.20
2023-01-13T14:58:18.123Z,7.10
2023-01-13T15:00:45.937Z,3.47
2023-01-13T15:03:17.650Z,6.37
2023-01-13T15:05:50.577Z,6.37
2023-01-13T15:08:28.227Z,4.70
2023-01-13T15:11:00.232Z,5.80
2023-01-13T15:13:44.043Z,5.63
2023-01-13T15:16:23.146Z,5.33
2023-01-13T15:18:50.916Z,5.87
2023-01-13T15:21:18.669Z,4.77
2023-01-13T15:23:47.607Z,3.67
2023-01-13T15:26:22.626Z,7.07
2023-01-13T15:28:50.342Z,6.17
2023-01-13T15:31:18.338Z,3.83
2023-01-13T15:33:46.321Z,7.13
2023-01-13T15:36:31.577Z,3.67
2023-01-13T15:38:59.656Z,6.70
2023-01-13T15:41:45.485Z,8.60
2023-01-13T15:44:31.278Z,5.23
2023-01-13T15:46:59.065Z,5.23
2023-01-13T15:49:35.381Z,5.70
2023-01-13T15:52:15.572Z,8.80
2023-01-13T15:54:43.319Z,6.07
2023-01-13T15:57:35.170Z,6.43
2023-01-13T16:00:08.755Z,6.67
2023-01-13T16:02:36.531Z,7.33
2023-01-13T16:05:05.864Z,6.80
2023-01-13T16:07:33.428Z,7.70
2023-01-13T16:10:02.227Z,6.57
2023-01-13T16:12:30.014Z,4.30
2023-01-13T16:14:58.748Z,4.77
2023-01-13T16:17:29.373Z,5.10
2023-01-13T16:19:57.834Z,4.70
2023-01-13T16:22:25.597Z,3.60
2023-01-13T16:24:53.376Z,6.10
2023-01-13T16:27:22.858Z,7.03
2023-01-13T16:29:50.453Z,3.80
2023-01-13T16:32:18.485Z,7.73
2023-01-13T16:34:47.091Z,6.67
2023-01-13T16:37:25.459Z,6.80
2023-01-13T16:39:54.303Z,6.83
2023-01-13T16:42:22.031Z,7.37
2023-01-13T16:44:50.915Z,8.87
2023-01-13T16:47:18.517Z,8.33
2023-01-13T16:49:46.537Z,6.03
2023-01-13T16:52:14.313Z,4.33
2023-01-13T16:54:42.205Z,9.00
2023-01-13T16:57:13.352Z,7.63
2023-01-13T16:59:41.333Z,8.57
2023-01-13T17:02:13.666Z,6.73
2023-01-13T17:04:41.565Z,9.70
2023-01-13T17:07:10.432Z,7.80
2023-01-13T17:09:38.300Z,6.30
2023-01-13T17:12:06.136Z,6.00
2023-01-13T17:14:34.133Z,7.50
2023-01-13T17:17:01.895Z,4.27
2023-01-13T17:19:29.693Z,7.23
2023-01-13T17:21:58.326Z,6.63
2023-01-13T17:24:26.451Z,6.17
2023-01-13T17:26:54.180Z,7.90
2023-01-13T17:29:23.328Z,5.43
2023-01-13T17:31:54.317Z,5.70
2023-01-13T17:34:22.035Z,5.50
2023-01-13T17:36:49.884Z,5.47
2023-01-13T17:39:18.786Z,5.27
2023-01-13T17:41:46.604Z,6.67
2023-01-13T17:44:18.108Z,4.23
2023-01-13T17:46:45.904Z,10.30
2023-01-13T17:49:14.567Z,5.40
2023-01-13T17:51:42.425Z,4.77
2023-01-13T17:54:13.185Z,5.80
2023-01-13T17:56:43.436Z,5.73
2023-01-13T17:59:12.055Z,3.60
2023-01-13T18:01:39.861Z,5.70
2023-01-13T18:04:07.544Z,6.13
2023-01-13T18:06:35.265Z,8.33
2023-01-13T18:09:03.151Z,7.30
2023-01-13T18:11:30.840Z,9.53
2023-01-13T18:13:58.648Z,7.37
2023-01-13T18:16:27.082Z,6.43
2023-01-13T18:19:17.773Z,4.43
2023-01-13T18:22:03.665Z,6.10
2023-01-13T18:24:49.584Z,6.20
2023-01-13T18:27:22.707Z,6.20
2023-01-13T18:29:58.628Z,6.47
2023-01-13T18:32:31.408Z,7.00
2023-01-13T18:35:05.761Z,4.10
2023-01-13T18:37:36.208Z,7.43
2023-01-13T18:40:04.360Z,6.73
2023-01-13T18:42:50.236Z,7.47
2023-01-13T18:45:19.207Z,6.60
2023-01-13T18:47:47.028Z,6.87
2023-01-13T18:50:14.721Z,6.73
2023-01-13T18:52:42.474Z,5.43
2023-01-13T18:55:10.458Z,5.37
2023-01-13T18:57:40.774Z,5.67
2023-01-13T19:00:10.796Z,4.33
2023-01-13T19:02:38.570Z,7.10
2023-01-13T19:05:06.758Z,8.90
2023-01-13T19:07:35.965Z,7.67
2023-01-13T19:10:04.809Z,7.60
2023-01-13T19:12:33.851Z,5.13
2023-01-13T19:15:01.896Z,11.00
2023-01-13T19:17:32.761Z,11.77
2023-01-13T19:20:00.735Z,8.23
2023-01-13T19:22:30.573Z,7.17
2023-01-13T19:24:58.529Z,5.60
2023-01-13T19:27:27.609Z,6.97
2023-01-13T19:29:58.295Z,6.77
2023-01-13T19:32:26.207Z,7.90
2023-01-13T19:34:55.272Z,5.73
2023-01-13T19:37:22.967Z,5.83
2023-01-13T19:39:50.838Z,8.40
2023-01-13T19:42:36.451Z,6.80
2023-01-13T19:45:22.536Z,8.83
2023-01-13T19:47:50.401Z,8.63
2023-01-13T19:50:18.261Z,4.67
2023-01-13T19:52:46.002Z,8.03
2023-01-13T19:55:13.740Z,7.63
2023-01-13T19:57:41.455Z,9.97
2023-01-13T20:00:09.737Z,7.57
2023-01-13T20:02:37.641Z,10.37
2023-01-13T20:05:07.796Z,8.03
2023-01-13T20:07:35.486Z,6.70
2023-01-13T20:10:03.328Z,7.63
2023-01-13T20:12:31.015Z,10.60
2023-01-13T20:14:59.242Z,8.77
2023-01-13T20:17:26.919Z,10.03
2023-01-13T20:19:53.716Z,7.27
2023-01-13T20:22:20.678Z,8.70
2023-01-13T20:24:48.424Z,8.00
2023-01-13T20:27:15.002Z,6.93
2023-01-13T20:29:41.732Z,7.53
2023-01-13T20:32:08.356Z,7.10
2023-01-13T20:34:35.051Z,5.57
2023-01-13T20:37:01.711Z,9.63
2023-01-13T20:39:28.387Z,10.90
2023-01-13T20:42:14.079Z,11.70
2023-01-13T20:44:40.741Z,8.10
2023-01-13T20:47:07.513Z,7.73
2023-01-13T20:49:36.010Z,7.67
2023-01-13T20:52:05.186Z,7.83
2023-01-13T20:54:31.790Z,7.13
2023-01-13T20:57:00.694Z,7.00
2023-01-13T20:59:28.640Z,9.80
2023-01-13T21:01:56.247Z,12.23
2023-01-13T21:04:24.071Z,10.20
2023-01-13T21:06:52.432Z,9.20
2023-01-13T21:09:20.352Z,8.83
2023-01-13T21:12:06.345Z,7.53
2023-01-13T21:14:52.165Z,7.73
2023-01-13T21:17:38.156Z,8.87
2023-01-13T21:20:11.605Z,7.33
2023-01-13T21:22:39.456Z,8.80
2023-01-13T21:25:07.607Z,8.57
2023-01-13T21:27:35.269Z,7.63
2023-01-13T21:30:03.037Z,6.63
2023-01-13T21:32:30.772Z,8.70
2023-01-13T21:35:02.410Z,6.50
2023-01-13T21:37:30.165Z,8.63
2023-01-13T21:39:57.925Z,10.00
2023-01-13T21:42:43.744Z,11.97
2023-01-13T21:45:29.822Z,12.30
2023-01-13T21:47:57.892Z,9.67
2023-01-13T21:50:27.230Z,12.13
2023-01-13T21:52:54.875Z,12.20
2023-01-13T21:55:28.664Z,5.73
2023-01-13T21:57:57.395Z,7.33
2023-01-13T22:00:26.680Z,8.53
2023-01-13T22:02:54.509Z,8.43
2023-01-13T22:05:23.207Z,9.70
2023-01-13T22:07:51.237Z,6.97
2023-01-13T22:10:20.319Z,8.70
2023-01-13T22:12:48.431Z,9.77
2023-01-13T22:15:16.738Z,6.87
2023-01-13T22:17:46.462Z,6.63
2023-01-13T22:20:14.265Z,7.90
2023-01-13T22:22:42.141Z,9.07
2023-01-13T22:25:11.627Z,11.17
2023-01-13T22:27:43.035Z,11.87
2023-01-13T22:30:11.829Z,6.97
2023-01-13T22:32:38.637Z,6.77
2023-01-13T22:35:06.469Z,8.33
2023-01-13T22:37:33.092Z,9.60
2023-01-13T22:39:59.836Z,10.37
2023-01-13T22:42:26.455Z,7.43
2023-01-13T22:44:53.166Z,6.17
2023-01-13T22:47:19.743Z,7.50
2023-01-13T22:49:47.731Z,7.67
2023-01-13T22:52:15.930Z,6.43
2023-01-13T22:54:42.627Z,6.93
2023-01-13T22:57:09.448Z,9.73
2023-01-13T22:59:36.097Z,8.27
2023-01-13T23:02:02.716Z,8.93
2023-01-13T23:04:29.414Z,9.90
2023-01-13T23:06:56.053Z,7.00
2023-01-13T23:09:22.651Z,10.40
2023-01-13T23:11:49.269Z,6.77
2023-01-13T23:14:15.945Z,8.83
2023-01-13T23:16:42.657Z,8.70
2023-01-13T23:19:10.624Z,6.77
2023-01-13T23:21:37.409Z,7.47
2023-01-13T23:24:04.861Z,7.03
2023-01-13T23:26:31.817Z,6.43
2023-01-13T23:29:03.596Z,7.10
2023-01-13T23:31:30.257Z,10.20
2023-01-13T23:33:56.883Z,9.17
2023-01-13T23:36:24.862Z,8.73
2023-01-13T23:38:51.881Z,5.83
2023-01-13T23:41:20.342Z,7.27
2023-01-13T23:43:51.898Z,5.70
2023-01-13T23:46:19.971Z,10.50
2023-01-13T23:48:46.923Z,7.70
2023-01-13T23:51:13.862Z,8.90
2023-01-13T23:53:44.992Z,6.93
2023-01-13T23:56:13.759Z,8.97
2023-01-13T23:58:41.193Z,4.67
